createdAt,value
2023-02-06T00:00:48.592Z,104440.13
2023-02-06T00:03:15.196Z,104439.22
2023-02-06T00:05:41.655Z,104440.00
2023-02-06T00:08:08.235Z,104438.97
2023-02-06T00:10:34.995Z,104430.81
2023-02-06T00:13:01.472Z,104442.31
2023-02-06T00:15:27.887Z,104437.81
2023-02-06T00:17:54.246Z,104437.81
2023-02-06T00:20:20.657Z,104435.94
2023-02-06T00:22:47.139Z,104436.78
2023-02-06T00:25:13.558Z,104438.63
2023-02-06T00:27:39.939Z,104434.97
2023-02-06T00:30:06.778Z,104431.38
2023-02-06T00:32:34.789Z,104420.00
2023-02-06T00:35:01.330Z,104410.16
2023-02-06T00:37:27.783Z,104418.13
2023-02-06T00:39:54.138Z,104412.69
2023-02-06T00:42:20.698Z,104419.69
2023-02-06T00:44:47.056Z,104424.00
2023-02-06T00:47:13.454Z,104419.41
2023-02-06T00:49:39.901Z,104419.38
2023-02-06T00:52:06.278Z,104428.09
2023-02-06T00:54:32.953Z,104418.34
2023-02-06T00:56:59.476Z,104426.44
2023-02-06T00:59:25.961Z,104427.44
2023-02-06T01:01:52.426Z,104441.53
2023-02-06T01:04:18.956Z,104427.19
2023-02-06T01:06:45.376Z,104426.13
2023-02-06T01:09:11.896Z,104425.03
2023-02-06T01:11:38.288Z,104432.91
2023-02-06T01:14:05.064Z,104423.03
2023-02-06T01:16:31.533Z,104426.44
2023-02-06T01:18:57.985Z,104427.31
2023-02-06T01:21:25.370Z,104422.78
2023-02-06T01:23:54.035Z,104425.50
2023-02-06T01:26:24.147Z,104420.97
2023-02-06T01:28:51.177Z,104419.16
2023-02-06T01:31:19.256Z,104415.75
2023-02-06T01:33:47.311Z,104415.75
2023-02-06T01:36:14.742Z,104415.94
2023-02-06T01:38:41.791Z,104428.16
2023-02-06T01:41:10.169Z,104424.41
2023-02-06T01:43:39.918Z,104424.34
2023-02-06T01:46:07.044Z,104423.41
2023-02-06T01:48:40.899Z,104425.28
2023-02-06T01:51:18.236Z,104413.59
2023-02-06T01:53:48.257Z,104404.63
2023-02-06T01:56:19.372Z,104408.19
2023-02-06T01:58:53.706Z,104397.66
2023-02-06T02:01:21.031Z,104394.25
2023-02-06T02:03:51.300Z,104397.13
2023-02-06T02:06:20.759Z,104393.41
2023-02-06T02:08:50.727Z,104395.94
2023-02-06T02:11:21.561Z,104386.84
2023-02-06T02:13:51.152Z,104390.34
2023-02-06T02:16:46.918Z,104384.16
2023-02-06T02:19:44.238Z,104392.22
2023-02-06T02:22:13.288Z,104386.91
2023-02-06T02:24:57.263Z,104393.13
2023-02-06T02:27:44.764Z,104393.91
2023-02-06T02:30:14.147Z,104395.63
2023-02-06T02:32:58.664Z,104395.59
2023-02-06T02:35:28.887Z,104389.38
2023-02-06T02:38:18.315Z,104397.50
2023-02-06T02:40:57.090Z,104401.91
2023-02-06T02:43:42.546Z,104406.25
2023-02-06T02:46:19.683Z,104407.09
2023-02-06T02:48:50.849Z,104404.38
2023-02-06T02:51:17.904Z,104413.38
2023-02-06T02:53:44.744Z,104407.09
2023-02-06T02:56:23.559Z,104409.72
2023-02-06T02:59:10.639Z,104404.38
2023-02-06T03:01:44.638Z,104402.59
2023-02-06T03:04:18.410Z,104393.91
2023-02-06T03:07:09.399Z,104389.50
2023-02-06T03:10:08.036Z,104377.94
2023-02-06T03:12:50.142Z,104377.78
2023-02-06T03:15:41.654Z,104377.75
2023-02-06T03:18:28.556Z,104374.19
2023-02-06T03:20:55.180Z,104375.22
2023-02-06T03:23:30.518Z,104377.09
2023-02-06T03:26:01.843Z,104375.28
2023-02-06T03:28:34.662Z,104369.88
2023-02-06T03:31:04.680Z,104370.72
2023-02-06T03:33:37.818Z,104366.31
2023-02-06T03:36:05.344Z,104377.09
2023-02-06T03:38:32.343Z,104373.69
2023-02-06T03:41:00.420Z,104383.53
2023-02-06T03:43:29.398Z,104385.25
2023-02-06T03:46:04.217Z,104394.06
2023-02-06T03:48:39.651Z,104391.25
2023-02-06T03:51:14.388Z,104397.41
2023-02-06T03:53:44.216Z,104390.34
2023-02-06T03:56:38.299Z,104385.91
2023-02-06T03:59:04.952Z,104389.38
2023-02-06T04:01:31.724Z,104392.91
2023-02-06T04:03:58.550Z,104388.38
2023-02-06T04:06:24.955Z,104388.31
2023-02-06T04:08:51.544Z,104390.19
2023-02-06T04:11:18.025Z,104380.63
2023-02-06T04:13:44.396Z,104385.00
2023-02-06T04:16:10.783Z,104386.69
2023-02-06T04:18:37.226Z,104391.03
2023-02-06T04:21:05.427Z,104388.31
2023-02-06T04:23:32.242Z,104393.72
2023-02-06T04:25:58.694Z,104391.97
2023-02-06T04:28:25.101Z,104390.31
2023-02-06T04:30:51.765Z,104396.19
2023-02-06T04:33:18.415Z,104399.91
2023-02-06T04:35:44.781Z,104405.47
2023-02-06T04:38:11.193Z,104410.94
2023-02-06T04:40:37.663Z,104410.09
2023-02-06T04:43:04.020Z,104409.22
2023-02-06T04:45:30.392Z,104405.91
2023-02-06T04:47:59.176Z,104398.09
2023-02-06T04:50:28.194Z,104392.88
2023-02-06T04:52:54.607Z,104397.44
2023-02-06T04:55:22.507Z,104391.22
2023-02-06T04:57:48.997Z,104396.56
2023-02-06T05:00:15.979Z,104402.75
2023-02-06T05:02:42.490Z,104393.91
2023-02-06T05:05:09.368Z,104395.69
2023-02-06T05:07:36.230Z,104395.69
2023-02-06T05:10:03.296Z,104395.69
2023-02-06T05:12:29.675Z,104392.06
2023-02-06T05:14:56.354Z,104400.09
2023-02-06T05:17:22.759Z,104399.06
2023-02-06T05:19:49.201Z,104397.16
2023-02-06T05:22:15.617Z,104389.00
2023-02-06T05:24:41.994Z,104400.50
2023-02-06T05:27:08.427Z,104404.00
2023-02-06T05:29:34.891Z,104394.16
2023-02-06T05:32:01.272Z,104393.22
2023-02-06T05:34:27.703Z,104387.84
2023-02-06T05:36:54.112Z,104386.06
2023-02-06T05:39:21.098Z,104396.75
2023-02-06T05:41:47.500Z,104394.91
2023-02-06T05:44:13.903Z,104386.91
2023-02-06T05:46:40.428Z,104385.16
2023-02-06T05:49:06.967Z,104380.75
2023-02-06T05:51:33.543Z,104371.81
2023-02-06T05:53:59.921Z,104378.88
2023-02-06T05:56:26.334Z,104391.25
2023-02-06T05:58:53.055Z,104381.38
2023-02-06T06:01:19.455Z,104378.63
2023-02-06T06:03:46.006Z,104366.16
2023-02-06T06:06:12.396Z,104369.75
2023-02-06T06:08:38.771Z,104374.22
2023-02-06T06:11:05.339Z,104378.66
2023-02-06T06:13:32.448Z,104377.69
2023-02-06T06:15:58.873Z,104375.81
2023-02-06T06:18:26.482Z,104369.53
2023-02-06T06:20:53.463Z,104362.38
2023-02-06T06:23:19.986Z,104364.94
2023-02-06T06:25:47.653Z,104364.03
2023-02-06T06:28:14.059Z,104363.09
2023-02-06T06:30:40.551Z,104371.16
2023-02-06T06:33:06.939Z,104364.97
2023-02-06T06:35:33.777Z,104367.56
2023-02-06T06:38:00.237Z,104363.06
2023-02-06T06:40:26.645Z,104353.41
2023-02-06T06:42:53.123Z,104350.00
2023-02-06T06:45:19.722Z,104350.19
2023-02-06T06:47:46.331Z,104348.44
2023-02-06T06:50:12.768Z,104359.03
2023-02-06T06:52:39.169Z,104359.81
2023-02-06T06:55:05.956Z,104352.66
2023-02-06T06:57:32.681Z,104351.69
2023-02-06T06:59:59.177Z,104349.91
2023-02-06T07:02:25.759Z,104347.94
2023-02-06T07:04:52.172Z,104339.81
2023-02-06T07:07:18.645Z,104335.34
2023-02-06T07:09:45.080Z,104330.09
2023-02-06T07:12:11.485Z,104341.69
2023-02-06T07:14:39.604Z,104337.25
2023-02-06T07:17:05.997Z,104332.06
2023-02-06T07:19:32.419Z,104337.47
2023-02-06T07:21:58.883Z,104331.31
2023-02-06T07:24:25.254Z,104334.91
2023-02-06T07:26:51.707Z,104327.97
2023-02-06T07:29:18.198Z,104326.19
2023-02-06T07:31:44.748Z,104317.25
2023-02-06T07:34:12.543Z,104319.81
2023-02-06T07:36:39.018Z,104333.00
2023-02-06T07:39:05.622Z,104323.84
2023-02-06T07:41:31.978Z,104322.91
2023-02-06T07:43:58.405Z,104314.97
2023-02-06T07:46:24.881Z,104309.66
2023-02-06T07:48:51.271Z,104315.00
2023-02-06T07:51:17.823Z,104306.25
2023-02-06T07:53:44.318Z,104314.31
2023-02-06T07:56:13.701Z,104307.03
2023-02-06T07:58:40.082Z,104313.13
2023-02-06T08:01:06.822Z,104311.34
2023-02-06T08:03:33.520Z,104315.00
2023-02-06T08:06:00.095Z,104305.22
2023-02-06T08:08:26.741Z,104309.72
2023-02-06T08:10:53.129Z,104303.34
2023-02-06T08:13:19.564Z,104309.63
2023-02-06T08:15:46.018Z,104306.97
2023-02-06T08:18:12.474Z,104305.31
2023-02-06T08:20:38.850Z,104298.59
2023-02-06T08:23:05.376Z,104277.28
2023-02-06T08:25:31.866Z,104272.88
2023-02-06T08:27:58.318Z,104273.94
2023-02-06T08:30:24.843Z,104294.53
2023-02-06T08:32:51.406Z,104299.09
2023-02-06T08:35:17.924Z,104295.84
2023-02-06T08:37:44.352Z,104289.91
2023-02-06T08:40:11.280Z,104279.50
2023-02-06T08:42:37.701Z,104277.97
2023-02-06T08:45:04.644Z,104280.91
2023-02-06T08:47:31.161Z,104286.34
2023-02-06T08:49:57.513Z,104281.19
2023-02-06T08:52:24.159Z,104281.38
2023-02-06T08:54:51.986Z,104277.25
2023-02-06T08:57:18.479Z,104281.19
2023-02-06T08:59:44.899Z,104287.75
2023-02-06T09:02:11.669Z,104280.97
2023-02-06T09:04:39.110Z,104276.63
2023-02-06T09:07:05.544Z,104275.06
2023-02-06T09:09:32.033Z,104267.19
2023-02-06T09:12:03.187Z,104261.97
2023-02-06T09:14:30.551Z,104272.91
2023-02-06T09:16:59.992Z,104267.75
2023-02-06T09:19:26.883Z,104272.31
2023-02-06T09:21:53.642Z,104278.63
2023-02-06T09:24:20.385Z,104278.81
2023-02-06T09:26:58.891Z,104287.13
2023-02-06T09:29:28.658Z,104276.59
2023-02-06T09:31:57.261Z,104286.28
2023-02-06T09:34:26.190Z,104287.16
2023-02-06T09:36:56.924Z,104288.09
2023-02-06T09:39:24.377Z,104287.16
2023-02-06T09:41:55.040Z,104284.63
2023-02-06T09:44:29.599Z,104273.13
2023-02-06T09:47:05.112Z,104268.44
2023-02-06T09:49:51.423Z,104264.22
2023-02-06T09:52:47.655Z,104275.19
2023-02-06T09:55:46.806Z,104282.06
2023-02-06T09:58:22.585Z,104273.94
2023-02-06T10:00:52.254Z,104275.84
2023-02-06T10:03:39.440Z,104273.47
2023-02-06T10:06:20.429Z,104265.66
2023-02-06T10:09:10.146Z,104267.50
2023-02-06T10:12:00.694Z,104272.97
2023-02-06T10:14:46.807Z,104274.91
2023-02-06T10:17:13.144Z,104272.25
2023-02-06T10:19:49.435Z,104267.75
2023-02-06T10:22:21.068Z,104279.38
2023-02-06T10:25:06.084Z,104270.44
2023-02-06T10:27:35.099Z,104284.78
2023-02-06T10:30:01.782Z,104284.78
2023-02-06T10:32:47.912Z,104283.88
2023-02-06T10:35:29.468Z,104284.78
2023-02-06T10:38:20.095Z,104280.31
2023-02-06T10:40:54.590Z,104264.16
2023-02-06T10:43:20.937Z,104275.81
2023-02-06T10:46:24.451Z,104282.09
2023-02-06T10:49:05.282Z,104282.94
2023-02-06T10:51:35.482Z,104288.38
2023-02-06T10:54:15.035Z,104280.31
2023-02-06T10:56:46.771Z,104282.88
2023-02-06T10:59:22.660Z,104278.44
2023-02-06T11:01:55.624Z,104271.31
2023-02-06T11:04:30.320Z,104273.13
2023-02-06T11:07:00.921Z,104272.22
2023-02-06T11:09:27.484Z,104282.97
2023-02-06T11:11:56.787Z,104283.88
2023-02-06T11:14:27.837Z,104277.59
2023-02-06T11:16:54.507Z,104270.44
2023-02-06T11:19:37.312Z,104276.66
2023-02-06T11:22:16.161Z,104273.91
2023-02-06T11:25:19.157Z,104264.81
2023-02-06T11:27:45.721Z,104266.69
2023-02-06T11:30:36.693Z,104272.16
2023-02-06T11:33:05.162Z,104262.31
2023-02-06T11:35:38.038Z,104262.34
2023-02-06T11:38:27.462Z,104252.47
2023-02-06T11:41:02.644Z,104263.25
2023-02-06T11:43:41.280Z,104256.06
2023-02-06T11:46:16.841Z,104254.28
2023-02-06T11:48:55.542Z,104240.72
2023-02-06T11:51:23.670Z,104241.56
2023-02-06T11:54:00.991Z,104234.09
2023-02-06T11:56:29.147Z,104224.75
2023-02-06T11:59:14.555Z,104216.13
2023-02-06T12:01:45.269Z,104219.16
2023-02-06T12:04:31.250Z,104213.94
2023-02-06T12:07:29.923Z,104205.16
2023-02-06T12:09:56.440Z,104207.25
2023-02-06T12:12:28.976Z,104221.81
2023-02-06T12:15:23.666Z,104220.16
2023-02-06T12:17:56.889Z,104220.16
2023-02-06T12:20:28.829Z,104218.38
2023-02-06T12:23:00.152Z,104206.72
2023-02-06T12:25:26.602Z,104212.13
2023-02-06T12:27:56.452Z,104213.91
2023-02-06T12:30:35.795Z,104209.34
2023-02-06T12:33:33.387Z,104200.22
2023-02-06T12:36:07.364Z,104209.91
2023-02-06T12:39:00.927Z,104207.72
2023-02-06T12:41:46.215Z,104193.91
2023-02-06T12:44:28.354Z,104200.53
2023-02-06T12:47:04.062Z,104192.50
2023-02-06T12:49:39.759Z,104188.25
2023-02-06T12:52:17.571Z,104180.13
2023-02-06T12:54:51.414Z,104176.88
2023-02-06T12:57:26.597Z,104178.69
2023-02-06T13:00:01.784Z,104172.53
2023-02-06T13:02:54.420Z,104177.66
2023-02-06T13:05:27.887Z,104171.69
2023-02-06T13:08:04.134Z,104163.56
2023-02-06T13:10:30.594Z,104164.81
2023-02-06T13:12:59.147Z,104152.91
2023-02-06T13:15:36.167Z,104141.81
2023-02-06T13:18:02.961Z,104138.47
2023-02-06T13:20:30.141Z,104129.53
2023-02-06T13:23:12.714Z,104123.66
2023-02-06T13:25:39.208Z,104128.38
2023-02-06T13:28:25.486Z,104119.56
2023-02-06T13:31:04.533Z,104112.16
2023-02-06T13:33:44.720Z,104104.97
2023-02-06T13:36:25.437Z,104091.25
2023-02-06T13:38:57.027Z,104092.72
2023-02-06T13:41:34.837Z,104103.75
2023-02-06T13:44:14.748Z,104110.31
2023-02-06T13:47:00.537Z,104118.78
2023-02-06T13:50:01.047Z,104121.56
2023-02-06T13:52:38.915Z,104131.03
2023-02-06T13:55:26.333Z,104131.16
2023-02-06T13:58:20.103Z,104137.53
2023-02-06T14:00:49.454Z,104141.16
2023-02-06T14:03:28.531Z,104140.31
2023-02-06T14:06:20.659Z,104146.59
2023-02-06T14:09:02.181Z,104141.25
2023-02-06T14:12:14.870Z,104136.75
2023-02-06T14:14:49.437Z,104133.97
2023-02-06T14:17:34.384Z,104139.34
2023-02-06T14:20:19.708Z,104129.34
2023-02-06T14:23:11.154Z,104121.19
2023-02-06T14:26:09.896Z,104120.28
2023-02-06T14:29:00.780Z,104133.78
2023-02-06T14:31:47.694Z,104136.34
2023-02-06T14:34:17.081Z,104132.72
2023-02-06T14:37:04.045Z,104129.25
2023-02-06T14:39:35.886Z,104123.88
2023-02-06T14:42:15.161Z,104128.38
2023-02-06T14:44:43.151Z,104125.81
2023-02-06T14:47:18.431Z,104131.25
2023-02-06T14:49:46.521Z,104128.66
2023-02-06T14:52:21.955Z,104138.53
2023-02-06T14:54:48.784Z,104141.25
2023-02-06T14:57:26.594Z,104150.13
2023-02-06T14:59:59.535Z,104151.00
2023-02-06T15:02:35.240Z,104156.34
2023-02-06T15:05:04.035Z,104142.03
2023-02-06T15:07:36.456Z,104139.28
2023-02-06T15:10:13.322Z,104144.66
2023-02-06T15:12:39.980Z,104146.44
2023-02-06T15:15:22.004Z,104144.63
2023-02-06T15:18:01.735Z,104150.00
2023-02-06T15:20:28.123Z,104157.25
2023-02-06T15:23:08.049Z,104155.47
2023-02-06T15:25:49.912Z,104156.44
2023-02-06T15:28:19.200Z,104151.09
2023-02-06T15:30:46.487Z,104152.00
2023-02-06T15:33:20.557Z,104147.47
2023-02-06T15:35:53.136Z,104148.34
2023-02-06T15:38:21.258Z,104154.59
2023-02-06T15:40:55.092Z,104149.16
2023-02-06T15:43:25.390Z,104144.63
2023-02-06T15:45:57.555Z,104134.72
2023-02-06T15:48:43.648Z,104147.16
2023-02-06T15:51:29.993Z,104158.75
2023-02-06T15:54:09.097Z,104154.22
2023-02-06T15:56:43.053Z,104149.69
2023-02-06T15:59:20.360Z,104147.84
2023-02-06T16:01:49.203Z,104145.06
2023-02-06T16:04:19.628Z,104141.47
2023-02-06T16:06:58.793Z,104153.00
2023-02-06T16:09:25.937Z,104149.31
2023-02-06T16:11:53.966Z,104145.69
2023-02-06T16:14:35.939Z,104140.22
2023-02-06T16:17:22.130Z,104141.94
2023-02-06T16:19:54.604Z,104147.13
2023-02-06T16:22:20.957Z,104143.38
2023-02-06T16:24:48.508Z,104140.69
2023-02-06T16:27:19.403Z,104136.13
2023-02-06T16:29:51.795Z,104139.50
2023-02-06T16:32:23.217Z,104149.16
2023-02-06T16:34:49.815Z,104145.38
2023-02-06T16:37:27.628Z,104155.13
2023-02-06T16:39:54.836Z,104156.63
2023-02-06T16:42:27.134Z,104161.03
2023-02-06T16:44:59.452Z,104161.72
2023-02-06T16:47:26.617Z,104159.78
2023-02-06T16:49:53.119Z,104154.38
2023-02-06T16:52:27.427Z,104154.06
2023-02-06T16:55:04.266Z,104156.56
2023-02-06T16:57:38.017Z,104158.22
2023-02-06T17:00:15.740Z,104153.53
2023-02-06T17:02:42.114Z,104158.78
2023-02-06T17:05:08.599Z,104166.59
2023-02-06T17:07:35.138Z,104163.78
2023-02-06T17:10:02.344Z,104162.72
2023-02-06T17:12:30.418Z,104159.81
2023-02-06T17:14:56.914Z,104156.13
2023-02-06T17:17:23.430Z,104162.19
2023-02-06T17:19:52.202Z,104162.94
2023-02-06T17:22:18.995Z,104157.47
2023-02-06T17:24:45.466Z,104159.19
2023-02-06T17:27:17.050Z,104152.13
2023-02-06T17:29:46.257Z,104151.09
2023-02-06T17:32:16.013Z,104154.53
2023-02-06T17:34:42.346Z,104155.34
2023-02-06T17:37:12.477Z,104154.28
2023-02-06T17:39:38.839Z,104154.06
2023-02-06T17:42:05.337Z,104146.81
2023-02-06T17:44:31.710Z,104143.31
2023-02-06T17:46:58.179Z,104146.09
2023-02-06T17:49:24.548Z,104143.34
2023-02-06T17:51:51.903Z,104145.00
2023-02-06T17:54:18.298Z,104135.03
2023-02-06T17:56:44.695Z,104142.91
2023-02-06T17:59:11.094Z,104152.59
2023-02-06T18:01:37.652Z,104143.56
2023-02-06T18:04:04.525Z,104141.69
2023-02-06T18:06:36.279Z,104147.78
2023-02-06T18:09:03.149Z,104145.06
2023-02-06T18:11:29.647Z,104148.53
2023-02-06T18:13:56.096Z,104147.44
2023-02-06T18:16:25.444Z,104142.00
2023-02-06T18:18:52.233Z,104144.56
2023-02-06T18:21:20.167Z,104142.50
2023-02-06T18:23:47.941Z,104135.09
2023-02-06T18:26:14.588Z,104142.94
2023-02-06T18:28:41.012Z,104138.38
2023-02-06T18:31:21.618Z,104134.63
2023-02-06T18:33:48.039Z,104133.53
2023-02-06T18:36:14.507Z,104128.00
2023-02-06T18:38:41.486Z,104134.22
2023-02-06T18:41:27.859Z,104124.34
2023-02-06T18:43:54.257Z,104120.69
2023-02-06T18:46:20.704Z,104118.22
2023-02-06T18:48:47.120Z,104122.53
2023-02-06T18:51:13.583Z,104112.56
2023-02-06T18:53:39.991Z,104121.31
2023-02-06T18:56:06.675Z,104118.59
2023-02-06T18:58:33.138Z,104120.16
2023-02-06T19:00:59.591Z,104123.69
2023-02-06T19:03:26.023Z,104115.66
2023-02-06T19:05:52.398Z,104120.91
2023-02-06T19:08:19.590Z,104110.84
2023-02-06T19:10:46.023Z,104104.50
2023-02-06T19:13:12.473Z,104106.22
2023-02-06T19:15:38.931Z,104101.69
2023-02-06T19:18:06.082Z,104112.97
2023-02-06T19:20:32.448Z,104110.25
2023-02-06T19:22:58.870Z,104102.16
2023-02-06T19:25:25.352Z,104105.72
2023-02-06T19:27:51.807Z,104100.34
2023-02-06T19:30:18.259Z,104101.41
2023-02-06T19:32:44.833Z,104091.81
2023-02-06T19:35:12.002Z,104100.63
2023-02-06T19:37:38.416Z,104092.03
2023-02-06T19:40:05.182Z,104084.44
2023-02-06T19:42:31.586Z,104085.28
2023-02-06T19:44:57.957Z,104086.09
2023-02-06T19:47:24.415Z,104079.66
2023-02-06T19:49:53.826Z,104076.78
2023-02-06T19:52:20.542Z,104072.19
2023-02-06T19:54:47.672Z,104077.56
2023-02-06T19:57:14.848Z,104070.25
2023-02-06T19:59:41.796Z,104068.38
2023-02-06T20:02:15.756Z,104073.63
2023-02-06T20:04:42.708Z,104078.72
2023-02-06T20:07:09.219Z,104082.97
2023-02-06T20:09:41.016Z,104079.13
2023-02-06T20:12:10.139Z,104074.66
2023-02-06T20:14:36.655Z,104074.53
2023-02-06T20:17:03.142Z,104078.00
2023-02-06T20:19:29.718Z,104077.81
2023-02-06T20:21:58.811Z,104075.91
2023-02-06T20:24:28.075Z,104082.19
2023-02-06T20:26:58.445Z,104071.50
2023-02-06T20:29:27.844Z,104070.50
2023-02-06T20:31:55.379Z,104063.16
2023-02-06T20:34:23.006Z,104064.88
2023-02-06T20:36:50.683Z,104069.13
2023-02-06T20:39:17.263Z,104067.28
2023-02-06T20:41:45.562Z,104062.72
2023-02-06T20:44:13.535Z,104066.91
2023-02-06T20:46:40.847Z,104072.16
2023-02-06T20:49:13.781Z,104070.38
2023-02-06T20:51:40.175Z,104074.63
2023-02-06T20:54:06.739Z,104068.34
2023-02-06T20:56:34.399Z,104074.88
2023-02-06T20:59:01.318Z,104069.75
2023-02-06T21:01:30.733Z,104079.41
2023-02-06T21:04:03.859Z,104085.31
2023-02-06T21:06:31.466Z,104086.88
2023-02-06T21:09:00.219Z,104084.22
2023-02-06T21:11:33.023Z,104086.69
2023-02-06T21:14:02.319Z,104081.25
2023-02-06T21:16:30.819Z,104082.97
2023-02-06T21:18:58.680Z,104089.78
2023-02-06T21:21:26.151Z,104084.25
2023-02-06T21:23:55.660Z,104076.25
2023-02-06T21:26:23.888Z,104077.13
2023-02-06T21:28:51.373Z,104081.53
2023-02-06T21:31:24.075Z,104077.88
2023-02-06T21:33:52.149Z,104083.94
2023-02-06T21:36:21.004Z,104084.88
2023-02-06T21:38:47.428Z,104086.50
2023-02-06T21:41:16.838Z,104087.66
2023-02-06T21:43:43.941Z,104084.06
2023-02-06T21:46:11.227Z,104081.25
2023-02-06T21:48:38.774Z,104089.03
2023-02-06T21:51:16.378Z,104090.66
2023-02-06T21:53:44.019Z,104087.94
2023-02-06T21:56:14.858Z,104088.09
2023-02-06T21:58:41.322Z,104085.50
2023-02-06T22:01:09.009Z,104086.19
2023-02-06T22:03:35.875Z,104089.44
2023-02-06T22:06:11.597Z,104092.00
2023-02-06T22:08:40.500Z,104087.44
2023-02-06T22:11:15.662Z,104076.91
2023-02-06T22:13:42.769Z,104076.91
2023-02-06T22:16:11.100Z,104080.22
2023-02-06T22:18:38.263Z,104075.88
2023-02-06T22:21:16.256Z,104082.88
2023-02-06T22:23:43.838Z,104081.81
2023-02-06T22:26:12.534Z,104080.97
2023-02-06T22:28:39.459Z,104081.06
2023-02-06T22:31:08.471Z,104084.59
2023-02-06T22:33:35.126Z,104085.25
2023-02-06T22:36:06.649Z,104095.19
2023-02-06T22:38:33.572Z,104093.09
2023-02-06T22:41:02.062Z,104091.69
2023-02-06T22:43:30.056Z,104093.50
2023-02-06T22:45:56.590Z,104089.53
2023-02-06T22:48:22.996Z,104085.03
2023-02-06T22:50:50.309Z,104085.72
2023-02-06T22:53:31.869Z,104084.75
2023-02-06T22:56:31.147Z,104081.81
2023-02-06T22:59:01.067Z,104088.88
2023-02-06T23:01:49.751Z,104094.34
2023-02-06T23:04:20.152Z,104093.22
2023-02-06T23:06:47.544Z,104094.78
2023-02-06T23:09:17.517Z,104089.44
2023-02-06T23:11:44.987Z,104094.69
2023-02-06T23:14:13.215Z,104099.03
2023-02-06T23:16:39.866Z,104103.63
2023-02-06T23:19:07.146Z,104096.72
2023-02-06T23:21:37.100Z,104102.88
2023-02-06T23:24:05.766Z,104107.09
2023-02-06T23:26:32.868Z,104106.25
2023-02-06T23:29:01.144Z,104109.66
2023-02-06T23:31:28.171Z,104111.34
2023-02-06T23:33:55.172Z,104119.22
2023-02-06T23:36:24.279Z,104119.28
2023-02-06T23:38:51.196Z,104119.31
2023-02-06T23:41:20.971Z,104116.75
2023-02-06T23:43:58.425Z,104113.94
2023-02-06T23:46:26.083Z,104111.28
2023-02-06T23:48:52.860Z,104109.53
2023-02-06T23:51:20.518Z,104108.19
2023-02-06T23:53:48.066Z,104104.88
2023-02-06T23:56:23.778Z,104111.81
2023-02-06T23:58:50.709Z,104104.66
